KDNS/DNS METAR and TAF weather

Enter ICAO airport designator
Station Type Date Time Source
KDNS METAR 2019/10/16 20:15 UTC NOAA

KDNS 162015Z AUTO 00000KT 10SM CLR 10/03 A3013 RMK AO2


Station Type Date Time Source
KDNS Decoded METAR 2019/10/16 20:15 UTC NOAA

Denison, IA, United States (KDNS) 41-59N 095-23W
Oct 16, 2019 - 04:15 PM EDT / 2019.10.16 2015 UTC
Wind: Calm:0
Visibility: 10 mile(s):0
Sky conditions: clear
Temperature: 50 F (10 C)
Dew Point: 37 F (3 C)
Relative Humidity: 61%
Pressure (altimeter): 30.13 in. Hg (1020 hPa)
ob: KDNS 162015Z AUTO 00000KT 10SM CLR 10/03 A3013 RMK AO2
cycle: 20

Station Type Date Time Source
KDNS TAF UTC NOAA

Error!

Example: see airport list